Time;durP1;ratioP1;P1;durP2;ratioP2;P2;SDS_P1;SDS_P2;PMS_P1;PMS_P2;Temp;Humidity;BMP_temperature;BMP_pressure;BME280_temperature;BME280_humidity;BME280_pressure;Samples;Min_cycle;Max_cycle;Signal;HPM_P1;HPM_P2
2022/04/28 00:00:58;;;;;;;18.25;10.15;;;17.80;51.80;;;;;;4932275;28;91832;-68
2022/04/28 00:03:24;;;;;;;22.83;11.82;;;17.80;51.90;;;;;;4914540;28;94310;-68
2022/04/28 00:05:49;;;;;;;21.83;11.00;;;17.70;51.80;;;;;;4931224;28;95180;-68
2022/04/28 00:08:15;;;;;;;19.38;10.52;;;17.80;51.80;;;;;;4931294;28;95317;-68
2022/04/28 00:10:41;;;;;;;19.77;10.90;;;17.70;51.70;;;;;;4931461;28;92598;-69
2022/04/28 00:13:09;;;;;;;20.13;10.35;;;17.80;51.80;;;;;;4931954;28;94506;-68
2022/04/28 00:15:35;;;;;;;19.95;10.82;;;17.80;51.70;;;;;;4929554;28;93089;-68
2022/04/28 00:18:01;;;;;;;19.67;10.30;;;17.80;51.70;;;;;;4931445;28;92861;-69
2022/04/28 00:20:27;;;;;;;18.35;10.45;;;17.80;51.60;;;;;;4932015;28;92610;-68
2022/04/28 00:22:52;;;;;;;19.38;10.18;;;17.70;51.60;;;;;;4931558;28;93897;-68
2022/04/28 00:25:19;;;;;;;17.83;9.02;;;17.70;51.60;;;;;;4931609;28;93836;-68
2022/04/28 00:27:44;;;;;;;16.75;9.68;;;17.70;51.60;;;;;;4932689;28;92711;-69
2022/04/28 00:30:10;;;;;;;18.10;10.15;;;17.70;51.60;;;;;;4932456;28;92542;-68
2022/04/28 00:32:36;;;;;;;16.10;9.32;;;17.60;51.50;;;;;;4930037;28;96040;-68
2022/04/28 00:35:02;;;;;;;18.98;9.60;;;17.60;51.50;;;;;;4931648;28;96549;-68
2022/04/28 00:37:28;;;;;;;16.23;8.82;;;17.70;51.50;;;;;;4932272;28;92439;-68
2022/04/28 00:39:53;;;;;;;17.13;9.32;;;17.70;51.50;;;;;;4932295;28;92928;-68
2022/04/28 00:42:19;;;;;;;18.23;9.50;;;17.70;51.60;;;;;;4931240;28;97167;-69
2022/04/28 00:44:46;;;;;;;16.50;8.95;;;17.70;51.40;;;;;;4931198;28;93585;-68
2022/04/28 00:47:13;;;;;;;14.32;8.60;;;17.60;51.40;;;;;;4932055;28;92449;-68
2022/04/28 00:52:24;;;;;;;16.52;8.70;;;17.60;51.40;;;;;;4929447;28;92998;-68
2022/04/28 00:54:53;;;;;;;17.20;8.95;;;17.60;52.50;;;;;;4930911;28;93967;-68
2022/04/28 00:57:22;;;;;;;15.07;7.93;;;17.60;51.40;;;;;;4931067;28;94983;-68
2022/04/28 00:59:50;;;;;;;15.70;8.30;;;17.60;51.40;;;;;;4931386;28;93159;-67
2022/04/28 01:02:18;;;;;;;13.05;7.88;;;17.60;51.30;;;;;;4931561;28;96870;-68
2022/04/28 01:04:47;;;;;;;15.02;8.65;;;17.60;51.30;;;;;;4931145;28;93098;-68
2022/04/28 01:07:13;;;;;;;15.68;8.23;;;17.60;51.20;;;;;;4932720;28;92895;-68
2022/04/28 01:09:40;;;;;;;13.52;8.07;;;17.50;51.20;;;;;;4933379;28;92918;-67
2022/04/28 01:12:14;;;;;;;13.63;7.30;;;17.50;51.10;;;;;;4934568;28;95134;-68
2022/04/28 01:14:44;;;;;;;13.40;7.43;;;17.50;51.20;;;;;;4936582;28;94730;-68
2022/04/28 01:17:10;;;;;;;12.82;7.40;;;17.50;51.20;;;;;;4942393;28;92606;-68
2022/04/28 01:19:37;;;;;;;14.05;7.53;;;17.50;51.10;;;;;;4935450;28;92503;-67
2022/04/28 01:22:04;;;;;;;11.95;6.75;;;17.50;51.10;;;;;;4930764;28;95809;-68
2022/04/28 01:24:31;;;;;;;13.70;7.47;;;17.50;51.10;;;;;;4931849;28;95111;-68
2022/04/28 01:26:58;;;;;;;11.77;6.80;;;17.50;51.10;;;;;;4929924;28;93436;-68
2022/04/28 01:29:24;;;;;;;11.88;6.53;;;17.50;51.00;;;;;;4932364;28;92557;-67
2022/04/28 01:31:50;;;;;;;13.65;7.70;;;17.50;51.00;;;;;;4931672;28;93433;-67
2022/04/28 01:34:16;;;;;;;12.40;6.90;;;17.50;51.00;;;;;;4930724;28;93810;-68
2022/04/28 01:36:42;;;;;;;12.85;7.05;;;17.50;51.00;;;;;;4930598;28;93271;-69
2022/04/28 01:39:08;;;;;;;12.50;6.72;;;17.40;50.80;;;;;;4931042;28;92378;-69
2022/04/28 01:41:34;;;;;;;12.88;6.68;;;17.50;50.90;;;;;;4930064;28;93602;-67
2022/04/28 01:44:00;;;;;;;11.50;6.47;;;17.40;51.00;;;;;;4930010;28;95773;-70
2022/04/28 01:46:26;;;;;;;11.60;6.30;;;17.40;50.90;;;;;;4929252;28;95194;-68
2022/04/28 01:48:51;;;;;;;9.52;5.75;;;17.40;50.80;;;;;;4911782;28;92620;-67
2022/04/28 01:56:45;;;;;;;11.07;6.07;;;17.40;50.80;;;;;;4930644;28;92536;-68
2022/04/28 01:59:10;;;;;;;12.38;6.47;;;17.40;50.90;;;;;;4930102;28;92919;-68
2022/04/28 02:01:36;;;;;;;12.07;6.40;;;17.40;50.80;;;;;;4929642;28;102933;-68
2022/04/28 02:04:02;;;;;;;10.57;5.78;;;17.40;50.80;;;;;;4929842;28;102214;-68
2022/04/28 02:06:27;;;;;;;10.60;6.15;;;17.40;50.80;;;;;;4930186;28;92646;-68
2022/04/28 02:08:53;;;;;;;9.52;6.00;;;17.30;50.70;;;;;;4929904;28;92648;-69
2022/04/28 02:11:19;;;;;;;11.18;6.45;;;17.30;50.60;;;;;;4929140;28;95875;-67
2022/04/28 02:13:44;;;;;;;8.85;5.80;;;17.30;50.70;;;;;;4930175;28;98942;-69
2022/04/28 02:16:10;;;;;;;10.30;5.70;;;17.40;50.70;;;;;;4929883;28;92689;-68
2022/04/28 02:18:36;;;;;;;11.10;5.90;;;17.40;50.70;;;;;;4930502;28;92675;-67
2022/04/28 02:21:02;;;;;;;10.13;5.68;;;17.40;51.70;;;;;;4929217;28;94579;-68
2022/04/28 02:23:27;;;;;;;9.77;5.57;;;17.30;50.60;;;;;;4929434;28;93254;-68
2022/04/28 02:25:53;;;;;;;9.23;5.63;;;17.30;50.60;;;;;;4930269;28;92807;-68
2022/04/28 02:28:19;;;;;;;9.68;5.65;;;17.30;50.60;;;;;;4930488;28;93462;-67
2022/04/28 02:30:44;;;;;;;9.63;5.22;;;17.30;50.50;;;;;;4930115;28;94476;-69
2022/04/28 02:33:10;;;;;;;8.43;5.03;;;17.30;50.50;;;;;;4929650;28;92912;-68
2022/04/28 02:35:40;;;;;;;8.98;5.25;;;17.30;50.50;;;;;;4928928;28;94959;-69
2022/04/28 02:38:06;;;;;;;8.88;4.75;;;17.30;50.50;;;;;;4930790;28;92921;-68
2022/04/28 02:40:32;;;;;;;9.32;5.28;;;17.30;50.40;;;;;;4933445;28;93035;-68
2022/04/28 02:42:59;;;;;;;9.73;5.15;;;17.30;50.40;;;;;;4932903;28;94109;-69
2022/04/28 02:45:25;;;;;;;9.57;5.00;;;17.30;50.50;;;;;;4933158;28;92586;-68
2022/04/28 02:47:51;;;;;;;8.38;5.05;;;17.30;50.50;;;;;;4934142;28;92857;-67
2022/04/28 02:50:17;;;;;;;9.38;5.00;;;17.30;50.40;;;;;;4932778;28;93720;-67
2022/04/28 02:52:43;;;;;;;10.05;5.32;;;17.30;50.40;;;;;;4915680;28;93416;-67
2022/04/28 02:55:09;;;;;;;12.13;5.35;;;17.30;50.40;;;;;;4932883;28;92877;-68
2022/04/28 02:57:35;;;;;;;9.07;5.22;;;17.30;50.30;;;;;;4934138;28;93006;-68
2022/04/28 03:00:04;;;;;;;8.55;4.80;;;17.20;50.30;;;;;;4931417;28;97389;-67
2022/04/28 03:02:30;;;;;;;7.93;4.07;;;17.20;50.30;;;;;;4933108;28;96338;-67
2022/04/28 03:04:57;;;;;;;9.38;5.03;;;17.20;50.30;;;;;;4932433;28;92609;-68
2022/04/28 03:12:52;;;;;;;7.72;4.43;;;17.20;50.30;;;;;;4933095;28;92814;-70
2022/04/28 03:15:18;;;;;;;7.95;4.40;;;17.20;50.30;;;;;;4933636;28;92792;-67
2022/04/28 04:20:20;;;;;;;8.48;4.05;;;17.00;50.00;;;;;;4407498;22;100915;-65
2022/04/28 04:22:45;;;;;;;7.70;4.13;;;17.00;50.10;;;;;;4931154;28;94142;-66
2022/04/28 04:25:11;;;;;;;9.32;4.38;;;17.00;50.10;;;;;;4932017;28;100766;-65
2022/04/28 04:27:38;;;;;;;5.95;3.78;;;17.00;50.10;;;;;;4932400;28;94551;-65
2022/04/28 04:32:17;;;;;;;8.45;3.53;;;17.00;50.00;;;;;;4931865;28;94482;-65
2022/04/28 04:32:50;;;;;;;6.75;3.53;;;17.00;49.90;;;;;;4931110;28;94962;-65
2022/04/28 04:35:17;;;;;;;5.30;3.60;;;17.00;50.00;;;;;;4932806;28;93903;-65
2022/04/28 04:37:43;;;;;;;19.08;4.03;;;17.00;50.00;;;;;;4932674;28;92529;-65
2022/04/28 04:40:13;;;;;;;7.32;3.40;;;17.00;50.00;;;;;;4931634;28;93001;-65
2022/04/28 04:42:39;;;;;;;7.68;3.45;;;17.00;50.30;;;;;;4930726;28;96563;-64
2022/04/28 04:45:08;;;;;;;7.43;3.72;;;17.00;50.50;;;;;;4931062;28;96207;-65
2022/04/28 04:47:33;;;;;;;6.35;3.28;;;17.00;50.40;;;;;;4931728;28;92526;-65
2022/04/28 04:49:59;;;;;;;6.05;3.35;;;17.00;50.40;;;;;;4931957;28;92708;-65
2022/04/28 04:52:24;;;;;;;6.95;3.60;;;17.10;50.50;;;;;;4931013;28;97769;-64
2022/04/28 04:54:50;;;;;;;6.40;3.80;;;17.00;50.40;;;;;;4931321;28;92768;-65
2022/04/28 04:57:16;;;;;;;6.47;3.42;;;17.00;50.40;;;;;;4931376;28;92654;-65
2022/04/28 04:59:41;;;;;;;6.53;3.55;;;17.10;50.30;;;;;;4931693;28;91865;-65
2022/04/28 05:02:08;;;;;;;7.63;3.72;;;17.10;50.50;;;;;;4931390;28;99089;-66
2022/04/28 05:04:34;;;;;;;7.70;3.70;;;17.00;50.40;;;;;;4930866;28;93706;-65
2022/04/28 05:07:00;;;;;;;7.03;3.58;;;17.10;50.30;;;;;;4928813;28;94935;-65
2022/04/28 05:09:26;;;;;;;5.80;3.30;;;17.10;50.30;;;;;;4931027;28;92866;-65
2022/04/28 05:11:51;;;;;;;6.82;3.50;;;17.00;50.30;;;;;;4930809;28;94254;-65
2022/04/28 05:14:17;;;;;;;6.03;3.53;;;17.10;50.40;;;;;;4930628;28;94097;-66
2022/04/28 05:16:42;;;;;;;6.05;3.33;;;17.10;50.30;;;;;;4930686;28;92522;-65
2022/04/28 05:19:08;;;;;;;7.43;3.55;;;17.10;50.40;;;;;;4929964;28;92630;-64
2022/04/28 05:21:33;;;;;;;8.35;3.60;;;17.10;50.20;;;;;;4912954;28;96000;-64
2022/04/28 05:23:59;;;;;;;6.32;3.80;;;17.10;50.30;;;;;;4930551;28;103818;-65
2022/04/28 05:26:25;;;;;;;6.75;3.75;;;17.10;50.40;;;;;;4930400;28;93859;-65
2022/04/28 05:28:51;;;;;;;8.02;3.58;;;17.10;50.30;;;;;;4931121;28;92992;-65
2022/04/28 05:31:18;;;;;;;6.60;3.60;;;17.10;50.40;;;;;;4930205;28;96873;-64
2022/04/28 05:33:43;;;;;;;7.05;3.63;;;17.10;50.50;;;;;;4930367;28;96248;-65
2022/04/28 05:36:11;;;;;;;4.93;3.35;;;17.10;51.40;;;;;;4931009;28;93612;-65
2022/04/28 05:38:37;;;;;;;6.20;3.80;;;17.10;50.20;;;;;;4931131;28;92938;-65
2022/04/28 05:41:04;;;;;;;7.30;3.63;;;17.20;50.20;;;;;;4930523;28;94858;-65
2022/04/28 05:46:16;;;;;;;7.65;3.70;;;17.20;50.20;;;;;;4929783;28;92575;-64
2022/04/28 05:48:42;;;;;;;6.95;3.35;;;17.20;50.20;;;;;;4929737;28;92093;-64
2022/04/28 05:51:08;;;;;;;9.02;3.55;;;17.20;50.30;;;;;;4930342;28;94127;-65
2022/04/28 05:53:33;;;;;;;8.73;3.60;;;17.20;50.30;;;;;;4930410;28;94072;-65
2022/04/28 05:55:59;;;;;;;7.30;3.70;;;17.30;50.60;;;;;;4929445;28;94806;-65
2022/04/28 05:58:25;;;;;;;11.30;4.10;;;17.20;50.60;;;;;;4930595;28;92548;-65
2022/04/28 06:00:51;;;;;;;8.05;4.15;;;17.20;50.70;;;;;;4930264;28;95249;-64
2022/04/28 06:03:17;;;;;;;7.57;3.42;;;17.30;51.30;;;;;;4930655;28;92885;-65
2022/04/28 06:05:42;;;;;;;7.00;3.28;;;17.30;51.20;;;;;;4930741;28;92942;-64
2022/04/28 06:08:08;;;;;;;8.75;3.67;;;17.40;51.20;;;;;;4929550;28;92999;-67
2022/04/28 06:10:34;;;;;;;6.05;3.20;;;17.40;51.20;;;;;;4929673;28;94190;-64
2022/04/28 06:12:59;;;;;;;8.45;3.38;;;17.50;51.30;;;;;;4929662;28;94116;-64
2022/04/28 06:15:25;;;;;;;5.57;3.20;;;17.60;51.40;;;;;;4932837;28;92838;-64
2022/04/28 06:17:51;;;;;;;6.53;2.90;;;17.70;51.40;;;;;;4933117;28;93000;-64
2022/04/28 06:20:17;;;;;;;9.00;3.50;;;17.80;51.40;;;;;;4931997;28;96046;-64
2022/04/28 06:22:44;;;;;;;8.80;3.35;;;17.90;51.20;;;;;;4933382;28;95785;-65
2022/04/28 06:25:09;;;;;;;8.40;3.40;;;18.00;51.00;;;;;;4932213;28;92576;-65
2022/04/28 06:27:36;;;;;;;7.03;3.17;;;18.00;50.60;;;;;;4933049;28;93515;-65
2022/04/28 06:30:02;;;;;;;7.47;2.97;;;18.10;50.40;;;;;;4933439;28;95052;-65
2022/04/28 06:32:28;;;;;;;8.25;3.33;;;18.20;50.30;;;;;;4932980;28;92887;-67
2022/04/28 06:34:54;;;;;;;9.05;3.25;;;18.20;50.40;;;;;;4933348;28;93067;-63
2022/04/28 06:37:20;;;;;;;9.82;3.35;;;18.30;50.40;;;;;;4934177;28;92278;-64
2022/04/28 06:39:45;;;;;;;8.05;3.05;;;18.30;50.60;;;;;;4932449;28;93232;-64
2022/04/28 06:42:12;;;;;;;10.05;3.10;;;18.40;50.70;;;;;;4933363;28;93214;-64
2022/04/28 06:44:38;;;;;;;9.57;2.65;;;18.40;50.80;;;;;;4931693;28;94951;-64
2022/04/28 06:47:05;;;;;;;11.93;2.80;;;18.40;50.80;;;;;;4932853;28;93109;-64
2022/04/28 06:49:33;;;;;;;10.18;2.90;;;18.40;50.80;;;;;;4933156;28;95211;-66
2022/04/28 06:51:59;;;;;;;5.88;2.60;;;18.40;50.80;;;;;;4933751;28;92982;-65
2022/04/28 06:54:25;;;;;;;6.30;2.33;;;18.40;50.70;;;;;;4932905;28;93037;-64
2022/04/28 06:56:50;;;;;;;5.88;2.40;;;18.50;50.70;;;;;;4932384;28;92620;-65
2022/04/28 06:59:16;;;;;;;9.18;2.95;;;18.50;50.60;;;;;;4932930;28;93148;-64
2022/04/28 07:01:41;;;;;;;7.30;2.38;;;18.50;50.60;;;;;;4932950;28;92302;-65
2022/04/28 07:04:07;;;;;;;6.30;2.28;;;18.50;50.50;;;;;;4932999;28;92604;-64
2022/04/28 07:06:33;;;;;;;6.10;2.60;;;18.60;50.50;;;;;;4932755;28;92639;-64
2022/04/28 07:08:58;;;;;;;6.40;2.10;;;18.60;50.40;;;;;;4930851;28;96850;-65
2022/04/28 07:11:24;;;;;;;8.82;2.42;;;18.70;50.50;;;;;;4914911;28;97940;-64
2022/04/28 07:13:51;;;;;;;6.25;2.53;;;18.70;50.40;;;;;;4932401;28;92485;-64
2022/04/28 07:16:16;;;;;;;6.05;2.40;;;18.70;50.40;;;;;;4932710;28;92621;-64
2022/04/28 07:18:43;;;;;;;5.93;2.35;;;18.70;50.40;;;;;;4932064;28;93233;-64
2022/04/28 07:21:08;;;;;;;10.38;2.85;;;18.70;50.40;;;;;;4931667;28;93196;-64
2022/04/28 07:23:34;;;;;;;8.25;2.95;;;18.70;50.30;;;;;;4932195;28;93033;-64
2022/04/28 07:26:00;;;;;;;8.43;2.42;;;18.70;50.40;;;;;;4932394;28;91771;-66
2022/04/28 07:28:25;;;;;;;5.90;2.47;;;18.70;50.40;;;;;;4931941;28;93055;-65
2022/04/28 07:30:51;;;;;;;6.13;2.30;;;18.70;50.30;;;;;;4932569;28;93048;-64
2022/04/28 07:33:17;;;;;;;5.45;2.40;;;18.70;50.20;;;;;;4931961;28;95429;-64
2022/04/28 07:35:43;;;;;;;6.93;2.45;;;18.60;50.20;;;;;;4932833;28;92612;-64
2022/04/28 07:38:08;;;;;;;7.90;2.60;;;18.60;50.30;;;;;;4931887;28;93619;-64
2022/04/28 07:40:36;;;;;;;5.85;2.38;;;18.60;50.30;;;;;;4932311;28;92953;-65
2022/04/28 07:43:02;;;;;;;9.05;2.47;;;18.50;50.20;;;;;;4932259;28;92989;-64
2022/04/28 07:45:28;;;;;;;6.22;2.47;;;18.50;50.20;;;;;;4914838;28;92947;-64
2022/04/28 07:47:54;;;;;;;4.07;2.00;;;18.50;50.20;;;;;;4914112;28;94567;-64
2022/04/28 07:50:20;;;;;;;9.55;2.28;;;18.50;50.30;;;;;;4933068;28;92915;-64
2022/04/28 07:52:46;;;;;;;5.88;2.20;;;18.40;50.10;;;;;;4932721;28;92674;-67
2022/04/28 07:55:13;;;;;;;3.55;2.05;;;18.50;50.30;;;;;;4932351;28;93279;-64
2022/04/28 07:57:38;;;;;;;5.43;2.42;;;18.40;50.20;;;;;;4930752;28;96638;-65
2022/04/28 08:00:06;;;;;;;4.72;2.10;;;18.40;50.20;;;;;;4913976;28;95231;-65
2022/04/28 08:02:32;;;;;;;3.58;2.10;;;18.40;50.20;;;;;;4931856;28;93402;-65
2022/04/28 08:04:59;;;;;;;4.85;2.30;;;18.30;50.20;;;;;;4932926;28;92523;-65
2022/04/28 08:07:25;;;;;;;6.68;2.28;;;18.30;50.20;;;;;;4931999;28;95393;-64
2022/04/28 08:09:51;;;;;;;5.32;2.20;;;18.30;50.20;;;;;;4932530;28;93069;-65
2022/04/28 08:12:17;;;;;;;4.82;2.30;;;18.30;50.20;;;;;;4932290;28;92694;-64
2022/04/28 08:14:43;;;;;;;5.43;2.30;;;18.20;50.10;;;;;;4932584;28;91770;-65
2022/04/28 08:17:08;;;;;;;4.68;2.30;;;18.20;50.20;;;;;;4931293;28;94554;-65
2022/04/28 08:19:34;;;;;;;4.93;2.20;;;18.20;50.20;;;;;;4931952;28;92969;-65
2022/04/28 08:22:00;;;;;;;6.15;2.30;;;18.20;50.20;;;;;;4930488;28;95424;-64
2022/04/28 08:24:26;;;;;;;4.85;2.30;;;18.20;50.20;;;;;;4930338;28;92631;-65
2022/04/28 08:26:54;;;;;;;4.57;2.20;;;18.20;50.20;;;;;;4931000;28;94280;-65
2022/04/28 08:29:21;;;;;;;5.18;2.45;;;18.20;50.20;;;;;;4929907;28;94471;-64
2022/04/28 08:31:46;;;;;;;4.53;2.13;;;18.10;50.20;;;;;;4931047;28;92905;-65
2022/04/28 08:34:17;;;;;;;4.78;2.30;;;18.10;50.10;;;;;;4931940;28;93085;-64
2022/04/28 08:36:44;;;;;;;8.13;2.55;;;18.10;50.20;;;;;;4930809;28;94816;-65
2022/04/28 08:39:10;;;;;;;4.25;2.50;;;18.10;50.20;;;;;;4932574;28;93786;-64
2022/04/28 08:41:47;;;;;;;5.00;2.38;;;18.10;50.20;;;;;;4931296;28;93132;-65
2022/04/28 08:44:19;;;;;;;4.80;2.25;;;18.10;50.30;;;;;;4932218;28;92866;-64
2022/04/28 08:46:53;;;;;;;4.25;2.33;;;18.10;50.40;;;;;;4929942;28;96917;-67
2022/04/28 08:49:27;;;;;;;6.68;2.63;;;18.00;50.40;;;;;;4932298;28;96628;-65
2022/04/28 08:51:57;;;;;;;6.30;2.30;;;18.10;50.60;;;;;;4932370;28;92859;-65
2022/04/28 08:54:26;;;;;;;3.85;2.08;;;18.10;50.60;;;;;;4932216;28;92973;-65
2022/04/28 08:56:53;;;;;;;5.78;2.25;;;18.00;50.50;;;;;;4931477;28;93364;-65
2022/04/28 08:59:20;;;;;;;7.40;2.50;;;18.00;50.50;;;;;;4931785;28;93626;-64
2022/04/28 09:01:47;;;;;;;6.22;2.50;;;18.00;50.50;;;;;;4931216;28;92917;-65
2022/04/28 09:04:13;;;;;;;6.15;2.58;;;18.00;50.50;;;;;;4931597;28;92232;-65
2022/04/28 09:06:41;;;;;;;6.75;2.60;;;18.00;50.50;;;;;;4929847;28;94750;-65
2022/04/28 09:09:12;;;;;;;4.63;2.50;;;18.00;50.70;;;;;;4930282;28;94127;-65
2022/04/28 09:11:40;;;;;;;6.10;2.28;;;18.00;50.90;;;;;;4930125;28;95225;-65
2022/04/28 09:14:18;;;;;;;5.78;2.65;;;18.00;50.70;;;;;;4930492;28;92781;-65
2022/04/28 09:16:48;;;;;;;5.38;2.15;;;18.00;50.60;;;;;;4930991;28;94174;-65
2022/04/28 09:19:19;;;;;;;4.13;2.30;;;17.90;50.50;;;;;;4929178;28;93717;-65
2022/04/28 09:21:46;;;;;;;6.82;2.63;;;18.00;50.60;;;;;;4931175;28;92546;-65
2022/04/28 09:24:14;;;;;;;4.57;2.40;;;18.00;50.50;;;;;;4929671;28;93158;-66
2022/04/28 09:26:41;;;;;;;5.53;2.10;;;18.00;50.60;;;;;;4930772;28;93964;-65
2022/04/28 09:29:14;;;;;;;4.82;2.35;;;17.90;50.40;;;;;;4913082;28;93846;-65
2022/04/28 09:31:43;;;;;;;4.72;2.53;;;17.90;50.40;;;;;;4930445;28;92605;-65
2022/04/28 09:34:12;;;;;;;4.63;2.42;;;17.90;50.40;;;;;;4930946;28;93270;-65
2022/04/28 09:36:39;;;;;;;4.68;2.50;;;17.90;50.50;;;;;;4930235;28;96273;-65
2022/04/28 09:39:06;;;;;;;4.50;2.33;;;17.90;50.40;;;;;;4930150;28;96301;-65
2022/04/28 09:44:21;;;;;;;5.97;2.30;;;17.90;50.40;;;;;;4930076;28;93107;-65
2022/04/28 09:46:48;;;;;;;4.38;2.50;;;17.80;50.40;;;;;;4930431;28;94577;-65
2022/04/28 09:49:17;;;;;;;5.18;2.55;;;17.80;50.30;;;;;;4932590;28;93042;-65
2022/04/28 09:51:43;;;;;;;4.40;2.40;;;17.80;50.30;;;;;;4933632;28;92547;-65
2022/04/28 09:54:15;;;;;;;4.32;2.10;;;17.80;50.30;;;;;;4935253;28;92268;-64
2022/04/28 09:56:43;;;;;;;4.70;2.33;;;17.80;50.40;;;;;;4933136;28;93034;-65
2022/04/28 09:59:12;;;;;;;4.53;2.35;;;17.80;50.30;;;;;;4934573;28;94158;-65
2022/04/28 10:01:38;;;;;;;4.95;2.35;;;17.80;50.30;;;;;;4932368;28;95279;-66
2022/04/28 10:04:07;;;;;;;4.72;2.35;;;17.80;50.30;;;;;;4934665;28;93160;-66
2022/04/28 10:06:38;;;;;;;4.65;2.55;;;17.80;50.20;;;;;;4933445;28;93212;-65
2022/04/28 10:09:12;;;;;;;4.45;2.30;;;17.80;50.20;;;;;;4933888;28;94212;-64
2022/04/28 10:11:38;;;;;;;4.25;2.33;;;17.80;50.20;;;;;;4933900;28;92699;-65
2022/04/28 10:14:06;;;;;;;4.88;2.15;;;17.80;50.20;;;;;;4933702;28;92912;-64
2022/04/28 10:16:32;;;;;;;3.85;2.55;;;17.80;50.10;;;;;;4933851;28;94107;-65
2022/04/28 10:19:12;;;;;;;3.40;2.17;;;17.80;50.20;;;;;;4932944;28;93811;-65
2022/04/28 10:21:43;;;;;;;4.22;2.30;;;17.80;50.10;;;;;;4932625;28;93002;-64
2022/04/28 10:32:57;;;;;;;5.18;2.30;;;17.80;50.10;;;;;;4933214;28;92623;-64
2022/04/28 10:36:04;;;;;;;3.92;2.15;;;17.80;50.10;;;;;;4933056;28;93027;-64
2022/04/28 10:38:38;;;;;;;3.50;2.10;;;17.80;50.10;;;;;;4878503;28;94164;-64
2022/04/28 10:41:05;;;;;;;4.65;2.10;;;17.80;50.20;;;;;;4932725;28;94367;-64
2022/04/28 10:43:33;;;;;;;4.15;2.20;;;17.80;50.20;;;;;;4932773;28;92935;-64
2022/04/28 10:46:01;;;;;;;6.38;2.65;;;17.90;50.20;;;;;;4932713;28;92027;-65
2022/04/28 10:48:30;;;;;;;4.80;2.10;;;17.90;50.10;;;;;;4932450;28;95005;-66
2022/04/28 10:51:17;;;;;;;4.38;2.40;;;17.90;50.20;;;;;;4932671;28;94647;-65
2022/04/28 10:54:01;;;;;;;4.20;2.20;;;17.90;50.00;;;;;;4931961;28;96564;-65
2022/04/28 10:56:50;;;;;;;3.35;2.03;;;17.90;50.00;;;;;;4932146;28;93010;-64
2022/04/28 10:59:37;;;;;;;4.10;2.22;;;17.90;50.00;;;;;;4916719;28;93004;-64
2022/04/28 11:02:15;;;;;;;5.57;2.70;;;17.90;50.00;;;;;;4932155;28;93860;-65
2022/04/28 11:04:49;;;;;;;3.95;2.22;;;17.90;50.00;;;;;;4932735;28;93890;-66
2022/04/28 11:07:17;;;;;;;2.50;1.90;;;17.90;50.00;;;;;;4932082;28;92616;-64
2022/04/28 11:09:44;;;;;;;4.15;2.15;;;18.00;50.10;;;;;;4931981;28;94651;-64
2022/04/28 11:12:11;;;;;;;2.22;1.80;;;18.00;50.10;;;;;;4932953;28;93988;-65
2022/04/28 11:15:09;;;;;;;3.58;2.08;;;17.90;50.00;;;;;;4932890;28;92667;-64
2022/04/28 11:17:36;;;;;;;3.97;1.98;;;17.90;49.90;;;;;;4932241;28;94488;-64
2022/04/28 11:20:13;;;;;;;4.20;2.13;;;18.00;50.10;;;;;;4930981;28;96487;-65
2022/04/28 11:22:47;;;;;;;4.70;2.15;;;18.00;50.00;;;;;;4932204;28;96388;-64
2022/04/28 11:25:15;;;;;;;2.95;2.10;;;18.00;49.90;;;;;;4932021;28;92697;-65
2022/04/28 11:27:42;;;;;;;3.28;1.80;;;18.00;50.00;;;;;;4931808;28;92778;-65
2022/04/28 11:30:13;;;;;;;3.22;1.70;;;18.00;49.90;;;;;;4931607;28;93684;-65
2022/04/28 11:32:51;;;;;;;2.33;1.58;;;18.10;49.90;;;;;;4931573;28;94732;-64
2022/04/28 11:35:20;;;;;;;3.28;1.80;;;18.10;49.90;;;;;;4932101;28;93907;-64
2022/04/28 11:37:48;;;;;;;3.60;1.83;;;18.10;49.90;;;;;;4931963;28;92491;-65
2022/04/28 11:40:16;;;;;;;2.45;1.98;;;18.10;49.90;;;;;;4931345;28;94615;-64
2022/04/28 11:42:42;;;;;;;3.35;1.83;;;18.10;50.90;;;;;;4931067;28;94520;-64
2022/04/28 11:45:08;;;;;;;2.63;1.85;;;18.00;49.80;;;;;;4930655;28;95377;-64
2022/04/28 11:47:42;;;;;;;3.58;2.00;;;18.00;49.80;;;;;;4931881;28;92584;-64
2022/04/28 11:50:16;;;;;;;2.83;1.77;;;18.10;49.90;;;;;;4931807;28;94486;-65
2022/04/28 11:52:42;;;;;;;2.95;1.85;;;18.00;49.80;;;;;;4931339;28;92865;-64
2022/04/28 11:55:09;;;;;;;4.15;2.03;;;18.00;49.80;;;;;;4931912;28;92615;-65
2022/04/28 11:57:39;;;;;;;3.05;1.85;;;18.10;50.90;;;;;;4930942;28;92478;-64
2022/04/28 12:00:12;;;;;;;2.90;1.95;;;18.00;49.80;;;;;;4931590;28;94531;-64
2022/04/28 12:02:41;;;;;;;4.85;1.77;;;18.10;49.80;;;;;;4932794;28;93768;-65
2022/04/28 12:05:19;;;;;;;3.22;2.00;;;18.00;49.90;;;;;;4930859;28;93010;-65
2022/04/28 12:07:52;;;;;;;5.20;1.88;;;18.00;49.80;;;;;;4931766;28;93061;-65
2022/04/28 12:15:56;;;;;;;3.72;1.90;;;18.00;49.80;;;;;;4931704;28;92838;-65
2022/04/28 12:21:21;;;;;;;3.95;1.90;;;18.00;49.80;;;;;;4931889;28;92717;-65
2022/04/28 12:23:50;;;;;;;4.18;2.10;;;18.00;49.80;;;;;;4931853;28;95461;-65
2022/04/28 12:26:19;;;;;;;3.97;1.90;;;18.00;49.90;;;;;;4930852;28;92527;-65
2022/04/28 12:28:45;;;;;;;3.60;1.65;;;18.00;49.80;;;;;;4931646;28;91889;-65
2022/04/28 12:31:13;;;;;;;5.82;1.73;;;18.00;49.80;;;;;;4930356;28;94975;-64
2022/04/28 12:33:41;;;;;;;2.63;1.65;;;18.00;49.80;;;;;;4931826;28;94071;-65
2022/04/28 12:36:13;;;;;;;5.10;2.10;;;18.00;49.80;;;;;;4931355;28;94891;-64
2022/04/28 12:38:49;;;;;;;2.67;1.85;;;18.00;49.70;;;;;;4931082;28;93274;-65
2022/04/28 12:41:23;;;;;;;2.92;1.40;;;18.00;49.70;;;;;;4931808;28;94984;-64
2022/04/28 12:43:51;;;;;;;3.80;1.73;;;18.10;49.90;;;;;;4930026;28;94316;-64
2022/04/28 12:46:34;;;;;;;5.68;1.50;;;18.10;49.80;;;;;;4931027;28;93716;-64
2022/04/28 12:49:05;;;;;;;3.17;1.90;;;18.10;49.60;;;;;;4931608;28;93067;-64
2022/04/28 12:51:41;;;;;;;3.25;1.85;;;18.10;49.60;;;;;;4930575;28;94380;-64
2022/04/28 12:54:15;;;;;;;3.53;1.92;;;18.10;49.70;;;;;;4931230;28;93864;-64
2022/04/28 12:56:43;;;;;;;3.63;2.05;;;18.10;49.50;;;;;;4930561;28;92551;-65
2022/04/28 12:59:11;;;;;;;3.00;1.50;;;18.10;49.60;;;;;;4931224;28;92608;-64
2022/04/28 13:01:41;;;;;;;3.17;1.80;;;18.10;49.50;;;;;;4929236;28;96643;-64
2022/04/28 13:04:08;;;;;;;5.55;1.85;;;18.10;49.60;;;;;;4930532;28;96340;-65
2022/04/28 13:06:38;;;;;;;3.08;1.85;;;18.10;49.50;;;;;;4930715;28;92517;-65
2022/04/28 13:09:07;;;;;;;3.28;1.88;;;18.10;49.50;;;;;;4931441;28;92600;-64
2022/04/28 13:11:35;;;;;;;3.63;1.80;;;18.10;49.50;;;;;;4930111;28;94554;-64
2022/04/28 13:14:01;;;;;;;2.45;1.63;;;18.10;49.50;;;;;;4930790;28;93769;-65
2022/04/28 13:16:28;;;;;;;4.03;1.73;;;18.10;49.60;;;;;;4931183;28;93166;-64
2022/04/28 13:18:54;;;;;;;3.47;1.60;;;18.10;49.50;;;;;;4931031;28;92184;-64
2022/04/28 13:21:21;;;;;;;3.50;1.67;;;18.10;49.50;;;;;;4929342;28;94162;-65
2022/04/28 13:23:47;;;;;;;2.85;1.80;;;18.10;49.60;;;;;;4929339;28;93985;-65
2022/04/28 13:26:17;;;;;;;2.92;1.60;;;18.10;49.50;;;;;;4929025;28;94969;-65
2022/04/28 13:28:47;;;;;;;3.22;1.67;;;18.10;49.50;;;;;;4931145;28;92666;-65
2022/04/28 13:31:13;;;;;;;3.78;1.85;;;18.10;49.50;;;;;;4930211;28;93253;-65
2022/04/28 13:33:39;;;;;;;2.90;1.60;;;18.10;49.50;;;;;;4930208;28;93922;-65
2022/04/28 13:36:06;;;;;;;2.65;1.60;;;18.10;49.50;;;;;;4930626;28;92603;-65
2022/04/28 13:38:32;;;;;;;4.15;1.60;;;18.20;49.50;;;;;;4930307;28;93042;-66
2022/04/28 13:40:58;;;;;;;2.75;1.65;;;18.10;49.50;;;;;;4930814;28;94311;-65
2022/04/28 13:43:24;;;;;;;3.33;1.75;;;18.10;49.40;;;;;;4930983;28;94071;-65
2022/04/28 13:45:50;;;;;;;2.25;1.40;;;18.10;49.50;;;;;;4930255;28;92554;-65
2022/04/28 13:48:16;;;;;;;2.10;1.40;;;18.10;49.50;;;;;;4930366;28;92576;-65
2022/04/28 13:50:46;;;;;;;2.92;1.55;;;18.10;49.50;;;;;;4929041;28;97311;-65
2022/04/28 13:53:12;;;;;;;2.45;1.50;;;18.10;49.40;;;;;;4931067;28;96216;-65
2022/04/28 13:55:39;;;;;;;3.75;1.50;;;18.10;49.40;;;;;;4931034;28;92896;-64
2022/04/28 13:58:06;;;;;;;3.75;1.63;;;18.10;49.40;;;;;;4931537;28;92639;-65
2022/04/28 14:00:32;;;;;;;2.45;1.40;;;18.10;49.50;;;;;;4930761;28;94224;-65
2022/04/28 14:02:58;;;;;;;5.03;1.77;;;18.10;49.50;;;;;;4931920;28;92814;-65
2022/04/28 14:05:26;;;;;;;3.13;1.38;;;18.10;49.50;;;;;;4930690;28;93070;-65
2022/04/28 14:07:52;;;;;;;3.35;1.50;;;18.10;49.50;;;;;;4930602;28;92267;-64
2022/04/28 14:10:18;;;;;;;2.47;1.50;;;18.10;49.50;;;;;;4930327;28;93580;-65
2022/04/28 14:12:44;;;;;;;4.13;1.40;;;18.10;49.50;;;;;;4929383;28;93913;-65
2022/04/28 14:15:10;;;;;;;3.63;1.50;;;18.10;49.60;;;;;;4928661;28;94929;-65
2022/04/28 14:17:37;;;;;;;3.90;1.73;;;18.10;49.70;;;;;;4929896;28;92434;-65
2022/04/28 14:20:10;;;;;;;2.17;1.50;;;18.10;49.60;;;;;;4929904;28;93126;-65
2022/04/28 14:22:39;;;;;;;;;;;18.10;49.60;;;;;;4929610;28;94286;-65
2022/04/28 14:25:05;;;;;;;2.75;1.50;;;18.00;49.60;;;;;;4931656;28;92517;-65
2022/04/28 14:27:33;;;;;;;3.55;1.80;;;18.00;49.80;;;;;;4929908;28;92598;-65